Time;durP1;ratioP1;P1;durP2;ratioP2;P2;SDS_P1;SDS_P2;PMS_P1;PMS_P2;Temp;Humidity;BMP_temperature;BMP_pressure;BME280_temperature;BME280_humidity;BME280_pressure;Samples;Min_cycle;Max_cycle;Signal;HPM_P1;HPM_P2
2022/10/05 00:01:30;;;;;;;2.92;1.48;;;17.90;68.80;;;;;;5054905;28;20025;-71
2022/10/05 00:04:17;;;;;;;3.50;1.70;;;17.80;68.80;;;;;;5048850;28;20082;-70
2022/10/05 00:07:23;;;;;;;3.85;1.70;;;17.90;68.80;;;;;;5033276;28;20079;-70
2022/10/05 00:09:59;;;;;;;1.55;1.10;;;17.80;68.70;;;;;;5056067;28;20067;-72
2022/10/05 00:12:28;;;;;;;1.65;1.10;;;17.90;68.80;;;;;;5055176;28;20212;-72
2022/10/05 00:14:58;;;;;;;2.03;1.23;;;17.80;68.90;;;;;;5061325;28;20036;-72
2022/10/05 00:17:26;;;;;;;2.17;1.55;;;17.80;68.90;;;;;;5061485;28;20104;-71
2022/10/05 00:19:53;;;;;;;2.15;1.88;;;17.80;69.10;;;;;;5040817;28;20044;-71
2022/10/05 00:22:28;;;;;;;1.85;1.40;;;17.80;69.10;;;;;;5062054;28;20025;-71
2022/10/05 00:24:57;;;;;;;1.77;1.38;;;17.80;69.10;;;;;;5058031;28;20502;-70
2022/10/05 00:27:32;;;;;;;2.70;1.40;;;17.80;69.20;;;;;;5045210;28;20021;-71
2022/10/05 00:30:01;;;;;;;3.58;1.83;;;17.80;69.20;;;;;;5052814;28;20021;-71
2022/10/05 00:32:27;;;;;;;2.20;1.65;;;17.70;69.30;;;;;;5044126;28;20032;-71
2022/10/05 00:34:53;;;;;;;2.45;1.20;;;17.70;69.30;;;;;;5055411;28;20472;-71
2022/10/05 00:37:19;;;;;;;1.05;0.85;;;17.80;69.40;;;;;;5061841;28;20036;-72
2022/10/05 00:39:45;;;;;;;1.52;1.02;;;17.80;69.40;;;;;;5041045;28;20033;-72
2022/10/05 00:42:27;;;;;;;1.48;1.20;;;17.80;69.30;;;;;;5060706;28;20088;-72
2022/10/05 00:45:11;;;;;;;2.60;1.20;;;17.80;69.20;;;;;;5050603;28;20064;-71
2022/10/05 00:47:51;;;;;;;3.15;1.95;;;17.80;69.30;;;;;;5040858;28;20029;-71
2022/10/05 00:50:32;;;;;;;2.20;1.38;;;17.80;69.30;;;;;;5067777;28;20532;-71
2022/10/05 00:53:23;;;;;;;3.17;1.90;;;17.80;69.50;;;;;;5033833;28;20036;-71
2022/10/05 00:56:22;;;;;;;2.25;1.50;;;17.70;69.60;;;;;;5065893;28;20029;-71
2022/10/05 00:58:54;;;;;;;1.60;1.15;;;17.70;69.80;;;;;;5054134;28;20123;-70
2022/10/05 01:01:48;;;;;;;1.23;1.13;;;17.70;69.90;;;;;;5054470;28;20059;-71
2022/10/05 01:04:24;;;;;;;1.67;1.52;;;17.70;69.60;;;;;;5051511;28;20492;-72
2022/10/05 01:07:22;;;;;;;2.35;1.30;;;17.70;69.70;;;;;;5065958;28;20017;-72
2022/10/05 01:09:58;;;;;;;1.98;1.50;;;17.70;69.70;;;;;;5061765;28;20028;-70
2022/10/05 01:12:44;;;;;;;3.05;2.00;;;17.70;69.80;;;;;;5064329;28;20391;-71
2022/10/05 01:15:20;;;;;;;2.72;2.03;;;17.70;69.90;;;;;;5058043;28;20090;-71
2022/10/05 01:18:01;;;;;;;4.93;1.63;;;17.70;70.20;;;;;;5051422;28;20395;-71
2022/10/05 01:20:55;;;;;;;2.78;1.60;;;17.60;70.20;;;;;;5057124;28;20024;-71
2022/10/05 01:23:56;;;;;;;3.05;1.80;;;17.70;70.20;;;;;;5059854;28;20055;-72
2022/10/05 01:26:46;;;;;;;2.88;2.10;;;17.70;70.00;;;;;;5065731;28;20039;-71
2022/10/05 01:29:22;;;;;;;2.60;1.50;;;17.70;70.10;;;;;;5063667;28;20391;-72
2022/10/05 01:32:06;;;;;;;1.65;1.35;;;17.60;70.10;;;;;;5058800;28;20024;-72
2022/10/05 01:34:41;;;;;;;4.78;2.00;;;17.70;70.20;;;;;;5068187;28;20495;-72
2022/10/05 01:37:22;;;;;;;1.92;1.30;;;17.60;70.50;;;;;;5064077;28;20029;-73
2022/10/05 01:40:05;;;;;;;8.40;2.17;;;17.60;70.50;;;;;;5050157;28;20031;-72
2022/10/05 01:42:49;;;;;;;3.55;1.88;;;17.50;70.90;;;;;;5070315;28;20380;-72
2022/10/05 01:45:31;;;;;;;3.03;1.92;;;17.50;71.20;;;;;;5056095;28;20029;-71
2022/10/05 01:48:22;;;;;;;4.87;1.40;;;17.50;71.20;;;;;;5071890;28;20029;-71
2022/10/05 01:51:03;;;;;;;3.22;2.03;;;17.50;71.20;;;;;;5027048;28;20484;-72
2022/10/05 01:53:42;;;;;;;2.50;1.42;;;17.50;71.30;;;;;;5066529;28;20391;-72
2022/10/05 01:56:13;;;;;;;2.55;1.73;;;17.50;71.20;;;;;;5054979;28;20064;-71
2022/10/05 01:59:21;;;;;;;2.10;1.53;;;17.50;71.30;;;;;;5034260;28;20051;-71
2022/10/05 02:01:59;;;;;;;2.38;1.73;;;17.50;71.20;;;;;;5023964;28;20294;-72
2022/10/05 02:04:46;;;;;;;2.58;2.05;;;17.50;71.30;;;;;;5052416;28;20037;-71
2022/10/05 02:07:20;;;;;;;1.90;1.55;;;17.50;71.40;;;;;;5058157;28;20162;-71
2022/10/05 02:10:04;;;;;;;1.75;1.25;;;17.50;71.50;;;;;;5060733;28;20504;-70
2022/10/05 02:12:36;;;;;;;2.33;1.83;;;17.40;71.60;;;;;;5064419;28;20031;-70
2022/10/05 02:15:14;;;;;;;3.03;1.67;;;17.50;71.60;;;;;;5067540;28;20063;-70
2022/10/05 02:17:50;;;;;;;2.25;1.67;;;17.40;71.60;;;;;;5059877;28;20051;-69
2022/10/05 02:20:26;;;;;;;2.00;1.80;;;17.40;71.80;;;;;;5046389;28;20685;-69
2022/10/05 02:22:59;;;;;;;3.72;2.75;;;17.40;71.90;;;;;;5066889;28;20070;-70
2022/10/05 02:25:36;;;;;;;3.40;2.38;;;17.30;71.90;;;;;;5040089;28;20025;-71
2022/10/05 02:28:11;;;;;;;3.25;2.47;;;17.30;71.80;;;;;;5059007;28;20549;-70
2022/10/05 02:30:43;;;;;;;2.45;1.88;;;17.30;71.90;;;;;;5057473;28;20039;-70
2022/10/05 02:33:28;;;;;;;3.85;1.75;;;17.30;72.10;;;;;;5041737;28;20541;-70
2022/10/05 02:36:00;;;;;;;3.05;2.15;;;17.20;72.30;;;;;;5057287;28;20040;-70
2022/10/05 02:39:04;;;;;;;2.63;1.67;;;17.10;72.50;;;;;;5063000;28;20054;-71
2022/10/05 02:41:48;;;;;;;2.55;2.03;;;17.10;72.60;;;;;;5062368;28;20085;-70
2022/10/05 02:44:29;;;;;;;4.07;2.47;;;17.10;72.70;;;;;;5044776;28;20032;-70
2022/10/05 02:47:05;;;;;;;2.83;2.08;;;17.00;72.80;;;;;;5063019;28;20028;-71
2022/10/05 02:49:46;;;;;;;4.45;2.35;;;17.00;72.80;;;;;;5061217;28;20025;-72
2022/10/05 02:52:42;;;;;;;3.67;2.13;;;17.00;73.10;;;;;;5062911;28;20029;-72
2022/10/05 02:55:22;;;;;;;3.15;1.70;;;17.00;73.10;;;;;;5059533;28;20048;-70
2022/10/05 02:58:02;;;;;;;2.55;1.75;;;16.90;73.00;;;;;;5064278;28;20044;-72
2022/10/05 03:00:33;;;;;;;3.33;2.53;;;17.00;73.00;;;;;;5065655;28;20031;-71
2022/10/05 03:03:21;;;;;;;2.20;1.55;;;16.90;73.10;;;;;;5060734;28;20021;-72
2022/10/05 03:05:59;;;;;;;2.38;2.05;;;16.90;73.20;;;;;;5056002;28;20591;-70
2022/10/05 03:08:40;;;;;;;2.40;1.95;;;16.90;73.30;;;;;;5045446;28;20085;-71
2022/10/05 03:11:23;;;;;;;4.03;1.88;;;16.90;73.40;;;;;;5050541;28;20028;-71
2022/10/05 03:14:05;;;;;;;6.05;2.47;;;16.90;73.40;;;;;;5059545;28;20024;-72
2022/10/05 03:16:43;;;;;;;2.72;2.08;;;16.90;73.40;;;;;;5045906;28;20121;-71
2022/10/05 03:19:28;;;;;;;2.50;1.90;;;16.90;73.60;;;;;;5060513;28;20017;-72
2022/10/05 03:22:25;;;;;;;3.47;1.55;;;16.90;73.50;;;;;;5059642;28;20017;-72
2022/10/05 03:25:03;;;;;;;3.17;2.10;;;16.80;73.60;;;;;;5038549;28;20480;-72
2022/10/05 03:27:37;;;;;;;5.22;2.30;;;16.80;73.70;;;;;;5061733;28;20009;-72
2022/10/05 03:30:20;;;;;;;3.17;2.20;;;16.90;73.80;;;;;;5060274;28;20025;-72
2022/10/05 03:33:02;;;;;;;5.38;2.92;;;16.90;73.80;;;;;;5065349;28;20021;-72
2022/10/05 03:35:54;;;;;;;4.28;2.75;;;16.90;73.80;;;;;;5058781;28;20091;-72
2022/10/05 03:38:41;;;;;;;4.47;1.98;;;16.90;73.90;;;;;;5062802;28;20028;-73
2022/10/05 03:41:16;;;;;;;3.72;2.33;;;16.80;73.90;;;;;;5052386;28;20082;-72
2022/10/05 03:44:04;;;;;;;3.25;2.70;;;16.90;74.00;;;;;;5042586;28;20087;-72
2022/10/05 03:46:54;;;;;;;3.10;1.75;;;16.80;74.20;;;;;;5063312;28;20032;-72
2022/10/05 03:49:43;;;;;;;2.00;1.75;;;16.80;74.30;;;;;;5063014;28;20021;-71
2022/10/05 03:52:22;;;;;;;5.68;2.80;;;16.80;74.20;;;;;;5038238;28;20053;-71
2022/10/05 03:55:14;;;;;;;2.28;2.08;;;16.80;74.30;;;;;;5058233;28;20099;-71
2022/10/05 03:57:41;;;;;;;3.70;2.25;;;16.90;74.10;;;;;;5049906;28;20083;-72
2022/10/05 04:00:24;;;;;;;2.38;1.95;;;16.80;74.20;;;;;;5059869;28;20071;-71
2022/10/05 04:03:05;;;;;;;3.63;2.25;;;16.90;74.30;;;;;;5060313;28;20029;-71
2022/10/05 04:05:36;;;;;;;3.78;2.53;;;16.90;74.50;;;;;;5059054;28;20020;-71
2022/10/05 04:08:21;;;;;;;3.17;2.60;;;16.90;74.40;;;;;;5053845;28;20040;-71
2022/10/05 04:10:56;;;;;;;1.95;1.58;;;16.90;74.30;;;;;;5044642;28;20025;-72
2022/10/05 04:13:50;;;;;;;3.78;2.10;;;16.90;74.20;;;;;;5062433;28;20031;-71
2022/10/05 04:16:28;;;;;;;4.10;2.35;;;16.90;74.00;;;;;;5054344;28;20045;-71
2022/10/05 04:19:09;;;;;;;3.20;2.25;;;16.90;74.20;;;;;;5057579;28;20078;-71
2022/10/05 04:21:52;;;;;;;2.80;2.05;;;16.90;74.10;;;;;;5065433;28;20498;-71
2022/10/05 04:24:37;;;;;;;2.15;1.88;;;16.90;74.00;;;;;;5056614;28;20051;-69
2022/10/05 04:27:14;;;;;;;2.28;1.65;;;16.90;74.20;;;;;;5062652;28;20028;-69
2022/10/05 04:30:07;;;;;;;2.28;1.70;;;16.90;74.30;;;;;;5059598;28;20024;-69
2022/10/05 04:32:54;;;;;;;3.60;2.67;;;16.90;74.30;;;;;;5059715;28;20024;-70
2022/10/05 04:35:53;;;;;;;3.95;2.22;;;16.90;74.40;;;;;;5045830;28;20025;-70
2022/10/05 04:38:24;;;;;;;3.20;1.50;;;16.90;74.40;;;;;;5043682;28;20063;-71
2022/10/05 04:40:50;;;;;;;2.00;1.57;;;16.90;74.40;;;;;;5060574;28;20066;-71
2022/10/05 04:44:00;;;;;;;5.15;2.15;;;16.90;74.40;;;;;;5057685;28;20431;-70
2022/10/05 04:46:37;;;;;;;2.83;2.20;;;17.00;74.10;;;;;;5045828;28;20064;-71
2022/10/05 04:49:24;;;;;;;4.82;1.83;;;16.90;74.20;;;;;;5060560;28;20024;-70
2022/10/05 04:52:04;;;;;;;3.28;1.95;;;16.90;74.20;;;;;;5060701;28;20544;-70
2022/10/05 04:54:32;;;;;;;2.97;2.30;;;16.90;74.30;;;;;;5066944;28;20037;-71
2022/10/05 04:57:06;;;;;;;12.93;2.22;;;16.90;75.10;;;;;;5070798;28;20052;-71
2022/10/05 04:59:58;;;;;;;7.03;2.38;;;16.90;74.50;;;;;;5045238;28;20045;-71
2022/10/05 05:02:49;;;;;;;3.00;2.30;;;16.90;74.40;;;;;;5062587;28;20063;-72
2022/10/05 05:05:54;;;;;;;2.60;2.40;;;16.90;74.50;;;;;;5070136;28;20445;-70
2022/10/05 05:08:23;;;;;;;7.88;3.10;;;16.90;74.50;;;;;;5044996;28;20041;-71
2022/10/05 05:11:05;;;;;;;3.38;2.00;;;16.80;74.70;;;;;;5063399;28;20032;-70
2022/10/05 05:13:30;;;;;;;;;;;16.80;74.80;;;;;;5061016;28;20036;-70
2022/10/05 05:16:11;;;;;;;1.75;1.50;;;16.80;74.80;;;;;;5064873;28;19945;-70
2022/10/05 05:19:07;;;;;;;2.65;1.70;;;16.80;74.90;;;;;;5049812;28;20020;-70
2022/10/05 05:21:56;;;;;;;3.65;2.20;;;16.80;74.60;;;;;;5057293;28;20029;-70
2022/10/05 05:24:37;;;;;;;3.17;2.45;;;16.90;74.70;;;;;;5059379;28;20025;-71
2022/10/05 05:27:36;;;;;;;3.58;1.88;;;16.80;74.60;;;;;;5049832;28;20029;-71
2022/10/05 05:30:07;;;;;;;4.22;1.80;;;16.80;74.50;;;;;;5059091;28;20021;-71
2022/10/05 05:33:13;;;;;;;2.15;1.95;;;16.80;74.40;;;;;;5058247;28;20033;-71
2022/10/05 05:36:03;;;;;;;3.35;2.40;;;16.90;74.30;;;;;;5064181;28;20430;-71
2022/10/05 05:38:38;;;;;;;2.40;2.08;;;16.80;74.40;;;;;;5065784;28;20044;-71
2022/10/05 05:41:24;;;;;;;3.97;1.73;;;16.70;74.50;;;;;;5063422;28;20021;-71
2022/10/05 05:44:11;;;;;;;2.38;2.10;;;16.80;74.60;;;;;;5063128;28;20016;-70
2022/10/05 05:46:40;;;;;;;4.53;2.03;;;16.80;74.50;;;;;;5064183;28;20556;-70
2022/10/05 05:49:21;;;;;;;2.95;2.10;;;16.70;74.50;;;;;;5060613;28;20017;-71
2022/10/05 05:52:00;;;;;;;3.95;1.90;;;16.80;74.50;;;;;;5064480;28;20074;-71
2022/10/05 05:54:39;;;;;;;2.13;1.80;;;16.80;74.50;;;;;;5050555;28;20086;-71
2022/10/05 05:57:32;;;;;;;2.17;1.60;;;16.70;74.60;;;;;;5066515;28;20045;-71
2022/10/05 06:00:16;;;;;;;3.85;1.60;;;16.70;74.50;;;;;;5052498;28;20107;-72
2022/10/05 06:03:08;;;;;;;2.53;2.00;;;16.70;74.40;;;;;;5062644;28;20033;-71
2022/10/05 06:05:48;;;;;;;2.60;1.92;;;16.70;74.50;;;;;;5062452;28;20025;-71
2022/10/05 06:08:33;;;;;;;4.57;1.65;;;16.70;74.60;;;;;;5067758;28;20020;-71
2022/10/05 06:11:22;;;;;;;3.85;2.47;;;16.70;74.50;;;;;;5058715;28;20047;-70
2022/10/05 06:13:48;;;;;;;3.35;1.80;;;16.70;74.50;;;;;;5045194;28;20400;-70
2022/10/05 06:16:28;;;;;;;2.83;2.00;;;16.70;74.60;;;;;;5043084;28;20697;-71
2022/10/05 06:19:03;;;;;;;2.35;1.77;;;16.70;74.50;;;;;;5067822;28;20103;-71
2022/10/05 06:21:31;;;;;;;2.47;1.73;;;16.70;74.40;;;;;;5049697;28;20020;-70
2022/10/05 06:24:22;;;;;;;3.38;1.60;;;16.70;74.50;;;;;;5061297;28;20435;-70
2022/10/05 06:27:12;;;;;;;3.58;2.13;;;16.70;74.30;;;;;;5063839;28;20445;-71
2022/10/05 06:30:13;;;;;;;2.67;1.90;;;16.70;74.30;;;;;;5058926;28;20039;-70
2022/10/05 06:33:16;;;;;;;4.30;1.90;;;16.80;74.20;;;;;;5056357;28;20029;-71
2022/10/05 06:36:05;;;;;;;2.05;1.30;;;16.70;74.10;;;;;;5063215;28;20032;-70
2022/10/05 06:39:09;;;;;;;2.65;1.48;;;16.70;74.10;;;;;;5054437;28;20415;-71
2022/10/05 06:42:30;;;;;;;2.25;1.60;;;16.70;74.00;;;;;;5049396;28;20040;-71
2022/10/05 06:45:16;;;;;;;7.70;1.55;;;16.80;74.00;;;;;;4981032;28;20069;-71
2022/10/05 06:47:54;;;;;;;2.17;1.58;;;16.80;74.00;;;;;;5067437;28;20116;-71
2022/10/05 06:50:39;;;;;;;2.97;1.67;;;16.80;74.00;;;;;;5068038;28;20433;-71
2022/10/05 06:53:37;;;;;;;1.85;1.42;;;16.70;73.90;;;;;;5058607;28;20043;-71
2022/10/05 06:56:27;;;;;;;2.05;1.58;;;16.80;74.00;;;;;;5053670;28;20048;-73
2022/10/05 06:59:22;;;;;;;2.42;1.73;;;16.80;74.10;;;;;;5051185;28;20072;-72
2022/10/05 07:02:05;;;;;;;2.28;1.55;;;16.80;74.10;;;;;;5055476;28;20058;-71
2022/10/05 07:04:37;;;;;;;3.50;1.92;;;16.80;74.20;;;;;;5053273;28;20458;-72
2022/10/05 07:07:30;;;;;;;3.03;2.25;;;16.80;74.30;;;;;;5064586;28;20075;-72
2022/10/05 07:10:06;;;;;;;1.65;1.27;;;16.80;74.10;;;;;;5064878;28;20036;-72
2022/10/05 07:12:43;;;;;;;1.75;1.48;;;16.80;74.20;;;;;;5068198;28;20032;-72
2022/10/05 07:15:26;;;;;;;1.23;1.13;;;16.80;74.10;;;;;;5064990;28;20017;-72
2022/10/05 07:18:24;;;;;;;1.75;1.35;;;16.90;74.20;;;;;;5043639;28;20497;-72
2022/10/05 07:20:50;;;;;;;1.63;1.50;;;16.90;74.10;;;;;;5059371;28;20390;-72
2022/10/05 07:23:35;;;;;;;1.60;1.45;;;16.90;74.10;;;;;;5069370;28;20024;-72
2022/10/05 07:26:07;;;;;;;8.32;2.38;;;16.90;74.10;;;;;;5067156;28;20039;-71
2022/10/05 07:29:01;;;;;;;1.55;1.30;;;16.90;74.10;;;;;;5066450;28;20028;-71
2022/10/05 07:31:45;;;;;;;3.08;1.65;;;16.90;74.00;;;;;;5060870;28;20474;-71
2022/10/05 07:34:41;;;;;;;2.38;1.98;;;16.90;73.90;;;;;;5062163;28;20415;-71
2022/10/05 07:40:11;;;;;;;3.17;1.98;;;16.90;74.10;;;;;;5066854;28;20137;-72
2022/10/05 07:42:55;;;;;;;1.90;1.30;;;16.90;74.10;;;;;;5057789;28;20023;-70
2022/10/05 07:45:28;;;;;;;1.60;1.50;;;16.90;74.10;;;;;;5039637;28;20037;-70
2022/10/05 07:48:02;;;;;;;2.33;1.88;;;16.90;74.10;;;;;;5037044;28;20044;-70
2022/10/05 07:51:00;;;;;;;1.90;1.23;;;17.00;74.10;;;;;;5061352;28;20028;-71
2022/10/05 07:53:56;;;;;;;1.58;1.30;;;17.00;73.90;;;;;;5039292;28;20051;-71
2022/10/05 07:56:31;;;;;;;0.75;0.75;;;17.10;73.70;;;;;;5055863;28;20054;-70
2022/10/05 07:59:03;;;;;;;2.67;1.92;;;17.10;73.60;;;;;;5056816;28;20099;-71
2022/10/05 08:01:33;;;;;;;3.58;1.52;;;17.10;73.50;;;;;;5053402;28;20032;-71
2022/10/05 08:04:04;;;;;;;2.20;1.50;;;17.10;73.40;;;;;;5065874;28;20025;-71
2022/10/05 08:06:37;;;;;;;2.63;1.50;;;17.10;73.50;;;;;;5066081;28;20021;-70
2022/10/05 08:09:22;;;;;;;;;;;17.10;73.50;;;;;;5038683;28;20492;-71
2022/10/05 08:12:21;;;;;;;4.05;1.63;;;17.00;73.50;;;;;;5038628;28;19966;-71
2022/10/05 08:14:51;;;;;;;2.35;1.40;;;17.00;73.50;;;;;;5052718;28;20033;-71
2022/10/05 08:17:47;;;;;;;3.38;1.60;;;17.00;73.50;;;;;;5064484;28;20029;-71
2022/10/05 08:20:32;;;;;;;1.23;1.13;;;17.10;73.50;;;;;;5068197;28;20063;-71
2022/10/05 08:23:10;;;;;;;1.75;1.42;;;17.00;73.40;;;;;;5058114;28;20048;-72
2022/10/05 08:25:56;;;;;;;1.63;1.52;;;17.00;73.40;;;;;;5057873;28;20370;-71
2022/10/05 08:28:51;;;;;;;1.45;1.20;;;17.10;73.30;;;;;;5068986;28;20028;-71
2022/10/05 08:31:19;;;;;;;2.75;1.10;;;17.10;73.20;;;;;;5062155;28;20033;-70
2022/10/05 08:33:57;;;;;;;1.20;1.13;;;17.20;73.00;;;;;;5062450;28;20021;-70
2022/10/05 08:36:43;;;;;;;1.35;1.13;;;17.20;72.70;;;;;;5054817;28;20032;-70
2022/10/05 08:39:18;;;;;;;6.68;1.58;;;17.30;72.30;;;;;;5058000;28;20067;-70
2022/10/05 08:41:52;;;;;;;1.50;1.15;;;17.30;72.00;;;;;;5038481;28;20028;-70
2022/10/05 08:44:52;;;;;;;2.05;1.45;;;17.40;71.80;;;;;;5057067;28;20108;-70
2022/10/05 08:47:30;;;;;;;1.38;1.02;;;17.40;71.80;;;;;;5039242;28;20032;-71
2022/10/05 08:50:14;;;;;;;1.55;1.05;;;17.50;71.90;;;;;;5033428;28;20036;-71
2022/10/05 08:52:50;;;;;;;1.42;1.17;;;17.50;71.70;;;;;;5036464;28;20016;-70
2022/10/05 08:55:29;;;;;;;1.40;1.05;;;17.60;71.50;;;;;;5051965;28;20043;-71
2022/10/05 08:58:09;;;;;;;1.73;1.30;;;17.70;71.80;;;;;;5049268;28;20483;-72
2022/10/05 09:00:43;;;;;;;2.53;1.75;;;17.80;71.10;;;;;;5053533;28;20043;-69
2022/10/05 09:03:38;;;;;;;2.58;1.25;;;17.80;71.10;;;;;;5035891;28;20116;-71
2022/10/05 09:06:16;;;;;;;1.17;0.98;;;17.80;71.10;;;;;;5051282;28;20553;-71
2022/10/05 09:09:06;;;;;;;1.83;1.20;;;17.90;71.20;;;;;;5054421;28;20602;-70
2022/10/05 09:11:57;;;;;;;1.40;1.27;;;18.00;71.10;;;;;;5055630;28;20040;-70
2022/10/05 09:14:38;;;;;;;1.13;1.02;;;18.10;70.90;;;;;;5056628;28;20033;-70
2022/10/05 09:17:45;;;;;;;1.85;1.42;;;18.10;70.90;;;;;;5042743;28;20038;-72
2022/10/05 09:20:24;;;;;;;1.77;1.00;;;18.20;70.70;;;;;;5051492;28;20048;-69
2022/10/05 09:23:12;;;;;;;2.70;1.13;;;18.30;70.70;;;;;;5048785;28;20124;-69
2022/10/05 09:26:03;;;;;;;2.08;1.13;;;18.40;70.40;;;;;;5046027;28;20028;-75
2022/10/05 09:28:56;;;;;;;2.42;1.15;;;18.50;70.20;;;;;;5019171;28;20037;-71
2022/10/05 09:31:38;;;;;;;2.90;1.00;;;18.60;69.80;;;;;;5054449;28;20044;-71
2022/10/05 09:34:12;;;;;;;1.88;1.05;;;18.70;69.80;;;;;;5049929;28;20802;-71
2022/10/05 09:36:46;;;;;;;1.08;0.98;;;18.70;69.60;;;;;;5053030;28;20393;-71
2022/10/05 09:39:21;;;;;;;1.63;1.17;;;18.70;69.60;;;;;;5034920;28;20029;-71
2022/10/05 09:42:31;;;;;;;1.35;1.23;;;18.70;69.60;;;;;;5054139;28;20029;-71
2022/10/05 09:45:26;;;;;;;2.92;1.35;;;18.70;69.70;;;;;;4997157;28;20127;-69
2022/10/05 09:48:10;;;;;;;1.13;1.02;;;18.70;69.70;;;;;;5061298;28;20028;-70
2022/10/05 09:50:43;;;;;;;1.13;0.88;;;18.70;70.10;;;;;;5046928;28;20025;-71
2022/10/05 09:53:18;;;;;;;;;;;18.70;70.00;;;;;;5056568;28;20039;-71
2022/10/05 09:56:08;;;;;;;1.95;1.20;;;18.80;69.90;;;;;;5056976;28;19916;-70
2022/10/05 09:58:58;;;;;;;1.30;1.08;;;18.80;69.70;;;;;;5060849;28;20045;-72
2022/10/05 10:01:36;;;;;;;1.30;1.20;;;18.80;69.60;;;;;;5064762;28;20029;-77
2022/10/05 10:05:04;;;;;;;1.10;1.02;;;18.80;69.70;;;;;;5065956;28;20039;-73
2022/10/05 10:08:04;;;;;;;0.70;0.70;;;18.90;69.70;;;;;;5064182;28;20388;-70
2022/10/05 10:10:47;;;;;;;1.35;1.10;;;19.00;69.60;;;;;;5068222;28;20021;-70
2022/10/05 10:13:45;;;;;;;0.73;0.73;;;19.10;69.20;;;;;;5063087;28;20132;-71
2022/10/05 10:16:39;;;;;;;0.82;0.82;;;19.10;68.90;;;;;;5048986;28;20036;-71
2022/10/05 10:19:41;;;;;;;1.05;0.82;;;19.20;68.90;;;;;;5043807;28;20021;-70
2022/10/05 10:22:12;;;;;;;0.70;0.70;;;19.20;68.90;;;;;;5061910;28;20066;-71
2022/10/05 10:24:49;;;;;;;1.38;1.10;;;19.30;68.70;;;;;;5059901;28;20497;-70
2022/10/05 10:27:26;;;;;;;1.08;0.95;;;19.40;68.30;;;;;;5063798;28;20464;-70
2022/10/05 10:30:13;;;;;;;0.85;0.85;;;19.50;68.30;;;;;;5065965;28;20025;-70
2022/10/05 10:33:12;;;;;;;1.35;1.02;;;19.60;68.10;;;;;;5057490;28;20392;-70
2022/10/05 10:35:59;;;;;;;2.88;1.10;;;19.90;67.70;;;;;;5064939;28;20150;-70
2022/10/05 10:38:45;;;;;;;1.17;0.75;;;20.00;66.60;;;;;;5061657;28;20029;-70
2022/10/05 10:41:32;;;;;;;0.70;0.70;;;20.10;66.30;;;;;;5041043;28;20041;-71
2022/10/05 10:44:19;;;;;;;1.25;0.90;;;20.00;67.10;;;;;;5064636;28;20044;-71
2022/10/05 10:47:35;;;;;;;1.23;0.95;;;20.00;66.50;;;;;;5067761;28;20035;-70
2022/10/05 10:50:38;;;;;;;0.93;0.85;;;19.90;66.40;;;;;;5043424;28;20111;-70
2022/10/05 10:53:09;;;;;;;1.77;1.13;;;19.80;66.60;;;;;;5073436;28;20034;-72
2022/10/05 10:55:40;;;;;;;1.15;0.60;;;19.80;66.80;;;;;;5073856;28;20031;-71
2022/10/05 10:58:06;;;;;;;3.70;1.00;;;19.70;66.70;;;;;;5071154;28;20526;-72
2022/10/05 11:01:31;;;;;;;2.10;0.70;;;19.80;66.80;;;;;;5056184;28;20029;-72
2022/10/05 11:04:34;;;;;;;1.52;0.90;;;19.80;66.80;;;;;;5020081;28;20092;-72
2022/10/05 11:07:21;;;;;;;1.33;0.93;;;19.80;66.60;;;;;;5017579;28;20034;-70
2022/10/05 11:10:08;;;;;;;0.70;0.70;;;19.80;66.50;;;;;;5059197;28;20029;-70
2022/10/05 11:12:49;;;;;;;1.10;0.75;;;19.80;66.60;;;;;;5055427;28;20090;-70
2022/10/05 11:15:27;;;;;;;2.30;1.23;;;19.70;66.70;;;;;;5063572;28;20025;-70
2022/10/05 11:18:14;;;;;;;2.20;0.80;;;19.60;66.50;;;;;;5057890;28;20491;-70
2022/10/05 11:21:17;;;;;;;3.05;1.17;;;19.60;66.70;;;;;;5055632;28;20092;-70
2022/10/05 11:23:48;;;;;;;1.10;0.85;;;19.70;66.70;;;;;;5058817;28;20028;-70
2022/10/05 11:26:35;;;;;;;0.47;0.40;;;19.70;66.90;;;;;;5059472;28;20086;-70
2022/10/05 11:29:33;;;;;;;2.13;1.20;;;19.80;66.90;;;;;;5060941;28;20024;-70
2022/10/05 11:32:12;;;;;;;1.42;1.10;;;19.80;66.70;;;;;;5036566;28;20033;-71
2022/10/05 11:34:53;;;;;;;1.02;0.82;;;19.90;66.50;;;;;;5058210;28;20025;-71
2022/10/05 11:37:28;;;;;;;0.60;0.60;;;19.90;66.10;;;;;;5063193;28;20048;-71
2022/10/05 11:40:15;;;;;;;1.73;1.05;;;19.90;65.90;;;;;;5062905;28;20147;-71
2022/10/05 11:43:32;;;;;;;0.88;0.88;;;20.00;66.10;;;;;;5055241;28;20052;-71
2022/10/05 11:46:07;;;;;;;4.05;0.85;;;20.20;65.70;;;;;;5029830;28;20033;-70
2022/10/05 11:48:44;;;;;;;0.98;0.80;;;20.20;65.60;;;;;;5057171;28;20032;-70
2022/10/05 11:51:27;;;;;;;4.07;0.85;;;20.20;65.50;;;;;;5066974;28;20103;-70
2022/10/05 11:54:08;;;;;;;0.80;0.80;;;20.20;65.50;;;;;;5050427;28;20055;-71
2022/10/05 11:56:45;;;;;;;3.70;0.75;;;20.30;65.30;;;;;;5054042;28;20361;-70
2022/10/05 11:59:17;;;;;;;2.00;0.93;;;20.30;65.60;;;;;;5057888;28;20526;-71
2022/10/05 12:02:12;;;;;;;0.90;0.90;;;20.30;65.50;;;;;;5058014;28;20024;-70
2022/10/05 12:05:02;;;;;;;1.17;0.90;;;20.30;65.10;;;;;;5063521;28;20029;-70
2022/10/05 12:07:27;;;;;;;0.65;0.63;;;20.40;65.00;;;;;;5053034;28;20029;-70
2022/10/05 12:10:20;;;;;;;1.08;0.75;;;20.40;65.00;;;;;;5068031;28;20040;-70
2022/10/05 12:12:54;;;;;;;1.85;0.63;;;20.50;65.00;;;;;;5055720;28;20070;-72
2022/10/05 12:15:44;;;;;;;0.70;0.70;;;20.60;64.70;;;;;;5058984;28;20032;-69
2022/10/05 12:18:31;;;;;;;1.52;1.20;;;20.70;64.40;;;;;;5057961;28;20044;-69
2022/10/05 12:21:00;;;;;;;2.08;1.00;;;20.70;64.00;;;;;;5040358;28;20035;-69
2022/10/05 12:23:38;;;;;;;0.60;0.60;;;20.70;64.10;;;;;;5064657;28;20027;-69
2022/10/05 12:26:05;;;;;;;0.50;0.50;;;20.70;64.30;;;;;;5058202;28;20039;-69
2022/10/05 12:29:12;;;;;;;0.60;0.60;;;20.90;64.00;;;;;;5037962;28;20033;-69
2022/10/05 12:31:46;;;;;;;3.40;1.17;;;21.10;63.60;;;;;;5054938;28;20045;-70
2022/10/05 12:34:47;;;;;;;1.25;0.60;;;21.20;63.20;;;;;;5054017;28;20097;-70
2022/10/05 12:37:40;;;;;;;0.75;0.55;;;21.40;63.00;;;;;;5053730;28;20028;-70
2022/10/05 12:40:25;;;;;;;1.10;0.70;;;21.50;62.50;;;;;;5034167;28;20027;-70
2022/10/05 12:43:12;;;;;;;0.70;0.70;;;21.60;62.40;;;;;;5037038;28;20032;-70
2022/10/05 12:46:07;;;;;;;7.93;1.38;;;21.70;62.30;;;;;;5034503;28;20025;-70
2022/10/05 12:48:51;;;;;;;1.48;0.80;;;21.60;62.40;;;;;;5026402;28;20037;-70
2022/10/05 12:51:45;;;;;;;0.80;0.80;;;21.60;62.40;;;;;;5055308;28;20031;-70
2022/10/05 12:54:19;;;;;;;1.05;0.70;;;21.50;63.00;;;;;;5059777;28;20472;-69
2022/10/05 12:57:02;;;;;;;0.60;0.60;;;21.60;63.10;;;;;;5060260;28;20056;-70
2022/10/05 12:59:43;;;;;;;2.38;0.90;;;21.70;62.50;;;;;;5056868;28;20029;-70
2022/10/05 13:02:33;;;;;;;0.68;0.40;;;21.70;62.70;;;;;;5058669;28;20464;-70
2022/10/05 13:05:09;;;;;;;0.85;0.80;;;21.70;62.70;;;;;;5058142;28;20020;-70
2022/10/05 13:07:54;;;;;;;1.00;0.90;;;21.70;62.60;;;;;;5064308;28;20107;-68
2022/10/05 13:10:38;;;;;;;1.30;0.73;;;21.70;62.80;;;;;;5059023;28;20457;-68
2022/10/05 13:13:41;;;;;;;0.77;0.77;;;21.80;62.70;;;;;;5052136;28;20029;-69
2022/10/05 13:16:19;;;;;;;0.60;0.50;;;21.80;62.50;;;;;;4970268;28;20125;-70
2022/10/05 13:19:06;;;;;;;1.20;0.70;;;21.70;62.80;;;;;;5058045;28;20131;-69
2022/10/05 13:21:37;;;;;;;0.93;0.93;;;21.80;62.90;;;;;;5043158;28;20032;-68
2022/10/05 13:24:25;;;;;;;0.73;0.73;;;21.90;62.50;;;;;;5046606;28;20131;-69
2022/10/05 13:27:19;;;;;;;1.35;1.05;;;21.90;62.00;;;;;;5065183;28;20397;-68
2022/10/05 13:29:57;;;;;;;0.93;0.63;;;21.90;62.00;;;;;;5053152;28;20032;-69
2022/10/05 13:32:28;;;;;;;1.02;0.95;;;21.90;62.30;;;;;;5055859;28;20056;-68
2022/10/05 13:35:00;;;;;;;0.60;0.60;;;21.90;62.60;;;;;;5056701;28;20108;-69
2022/10/05 13:37:43;;;;;;;0.52;0.50;;;21.90;62.70;;;;;;5069563;28;20035;-69
2022/10/05 13:40:18;;;;;;;1.55;0.95;;;21.90;62.80;;;;;;5063682;28;20016;-70
2022/10/05 13:43:10;;;;;;;1.33;1.23;;;22.10;62.70;;;;;;5061808;28;20495;-69
2022/10/05 13:45:39;;;;;;;;;;;22.60;61.20;;;;;;5064431;28;20031;-70
2022/10/05 13:48:35;;;;;;;1.05;0.68;;;22.70;60.80;;;;;;5065558;28;20256;-69
2022/10/05 13:51:20;;;;;;;1.45;0.90;;;22.60;61.10;;;;;;5065563;28;20037;-70
2022/10/05 13:54:17;;;;;;;2.55;0.80;;;22.50;61.80;;;;;;5061277;28;20494;-70
2022/10/05 13:56:50;;;;;;;0.60;0.60;;;23.30;60.60;;;;;;5054260;28;20116;-70
2022/10/05 13:59:31;;;;;;;0.70;0.70;;;23.70;58.80;;;;;;5064724;28;20531;-70
2022/10/05 14:02:06;;;;;;;0.60;0.60;;;23.70;57.90;;;;;;5059677;28;20028;-70
2022/10/05 14:04:45;;;;;;;1.00;0.80;;;24.90;56.90;;;;;;5056582;28;20037;-71
2022/10/05 14:07:37;;;;;;;0.57;0.57;;;26.20;54.20;;;;;;5059530;28;20522;-73
2022/10/05 14:10:24;;;;;;;1.73;1.10;;;26.40;53.70;;;;;;5066454;28;20025;-70
2022/10/05 14:12:53;;;;;;;4.82;1.38;;;26.60;53.20;;;;;;5069174;28;20372;-70
2022/10/05 14:15:21;;;;;;;0.55;0.55;;;27.10;52.50;;;;;;5062645;28;20043;-70